Terminal Aerodrome Forecast
Issued by NWS Wilmington, OH

Current Version | Previous Version | Text Only | Print | Product List | Glossary Off
Versions: 1 2 3 4 5 6 7 8 9 10 11 12 13 14 15 16 17 18 19 20

000
FTUS41 KILN 202300
TAFCMH
TAF
KCMH 202335Z 2100/2124 VRB03KT P6SM SCT050
     FM210600 00000KT 2SM BR SCT015
     FM211300 VRB03KT P6SM SCT025
     FM211600 09006KT P6SM SCT035=

USA.gov is the U.S. government's official web portal to all federal, state and local government web resources and services.